Airfield :
LOGIN :

Register | Disclaimer

   EN    FR    IT 

 










Legend :    VFR   Marginal VFR   IFR   Intensive IFR   Very Intensive IFR
Visi :
Ceiling :
>= 8 km
>= 3000ft
5 to 8 km
1000 to 3000 ft
1500m to 5 km
500 to 1000 ft
800 to 1500m
200 to 500 ft
< 800m
< 200 ft
Symbols :   Thunderstorms  Fog  Heavy snow  Heavy precipitations  Wind > 20 kt
SIGMETs :     Misc.  Thunderstorms  Icing  Turbulence  Mountain Waves  Volcanic Ashes






- Airport Elevation : 466 ft


LHPA - Pápa

CURRENT METAR :
  • 250415Z 13005KT CAVOK 16/14 Q1018 NOSIG RMK BLU

EXPIRED METARs :
  • 250345Z 12003KT CAVOK 15/13 Q1018 NOSIG RMK BLU
  • 250315Z 12003KT CAVOK 16/13 Q1018 NOSIG RMK BLU
  • 250245Z 13003KT CAVOK 16/13 Q1018 NOSIG RMK BLU
  • 250215Z VRB02KT CAVOK 16/13 Q1018 NOSIG RMK BLU
  • 250145Z 10003KT 080V140 CAVOK 16/13 Q1018 NOSIG RMK BLU
  • 250115Z 08004KT CAVOK 15/13 Q1018 NOSIG RMK BLU
  • 250045Z 11002KT CAVOK 16/13 Q1018 NOSIG RMK BLU
  • 250015Z 16004KT CAVOK 16/14 Q1018 NOSIG RMK BLU
  • 242345Z 15005KT CAVOK 16/14 Q1018 NOSIG RMK BLU

TAF TAF LHPA
Valid from the 25 at 00:00 until the 26 at 00:00 UTC


242315Z 2500/2524 15004KT CAVOK
PROB40 2502/2506 VRB03KT 5000 BR MIFG BKN015
PROB30
TEMPO 2503/2507 6000 SHRA SCT040TCU BKN060
BECMG 2508/2510 9999 NSW SCT040TCU
TEMPO 2510/2519 VRB18G28KT 5000 TSRA SHRA SCT030CB BKN050TCU
BECMG 2520/2522 32004KT CAVOK



MET'MAP, your aeronautical weather chart ! - Copyright ORBIFLY December 2007 - Disclaimer

ORBIFLY MET'MAP TEAM :

Programming & Development : Alexandra Zaïnal
Original concept : Baudouin d'Aumeries
Technical & hardware support : Manuel Goepfert
Assistance : Marc-Olivier Méhu




SOURCES & CREDITS :

   NOAA